O'Neals, California
Current Conditions -  °F | °C
As of 11:12 AM on Sunday 21 Dec 2014 (Local Time) from KFAT Reporting Station
Haze Haze  
Wind Chill: 52°   Ceiling: 800
Heat Index: 52°   Visibility: 2mi
Dew Point: 51°   Wind: 5mph
Humidity: 97%   Direction: 180°S
Pressure: 30.3"   Gusts: NA
Location:  37.13°N, 119.7°W
Report Text: KFAT 211912Z 18004KT 2SM BR SCT005 BKN008 11/11 A3030 RMK AO2 T01110106
Loading
Personal Weather Stations






























Interactive Weather Map New forecast layout! Learn more

10-Day Weather Forecast

Advertisements
Track Severe Weather on mobile